createdAt,value
2016-04-21T00:01:03.836Z,4.36
2016-04-21T00:01:49.664Z,4.36
2016-04-21T00:02:50.089Z,4.37
2016-04-21T00:03:49.873Z,4.27
2016-04-21T00:04:50.172Z,4.29
2016-04-21T00:05:49.706Z,4.27
2016-04-21T00:06:49.583Z,4.18
2016-04-21T00:07:49.602Z,4.18
2016-04-21T00:08:49.574Z,4.15
2016-04-21T00:09:49.717Z,4.12
2016-04-21T00:10:49.720Z,4.09
2016-04-21T00:11:49.550Z,4.06
2016-04-21T00:12:50.163Z,3.93
2016-04-21T00:13:49.994Z,4.02
2016-04-21T00:14:49.605Z,3.94
2016-04-21T00:15:49.515Z,4.06
2016-04-21T00:16:49.517Z,4
2016-04-21T00:17:49.504Z,4.04
2016-04-21T00:18:49.507Z,4.02
2016-04-21T00:19:49.479Z,4.04
2016-04-21T00:20:49.482Z,4.05
2016-04-21T00:21:49.484Z,4.06
2016-04-21T00:22:49.471Z,3.97
2016-04-21T00:23:49.457Z,3.97
2016-04-21T00:24:49.445Z,3.94
2016-04-21T00:25:49.447Z,3.9
2016-04-21T00:26:49.434Z,3.91
2016-04-21T00:27:49.422Z,3.94
2016-04-21T00:28:49.393Z,3.87
2016-04-21T00:29:49.381Z,3.93
2016-04-21T00:30:49.398Z,3.79
2016-04-21T00:31:49.370Z,3.75
2016-04-21T00:32:49.403Z,3.75
2016-04-21T00:33:49.359Z,3.76
2016-04-21T00:34:49.362Z,3.76
2016-04-21T00:35:49.333Z,3.7
2016-04-21T00:36:49.353Z,3.72
2016-04-21T00:37:49.339Z,3.66
2016-04-21T00:38:49.326Z,3.69
2016-04-21T00:39:49.298Z,3.62
2016-04-21T00:40:49.316Z,3.61
2016-04-21T00:41:49.302Z,3.62
2016-04-21T00:42:49.290Z,3.65
2016-04-21T00:43:49.277Z,3.62
2016-04-21T00:44:49.264Z,3.62
2016-04-21T00:45:49.267Z,3.6
2016-04-21T00:46:49.254Z,3.54
2016-04-21T00:47:49.257Z,3.52
2016-04-21T00:48:49.228Z,3.55
2016-04-21T00:49:49.231Z,3.5
2016-04-21T00:50:49.718Z,3.51
2016-04-21T00:51:49.642Z,3.58
2016-04-21T00:52:49.208Z,3.58
2016-04-21T00:53:49.695Z,3.61
2016-04-21T00:54:49.166Z,3.52
2016-04-21T00:55:49.201Z,3.61
2016-04-21T00:56:49.140Z,3.6
2016-04-21T00:57:49.159Z,3.65
2016-04-21T00:58:50.192Z,3.5
2016-04-21T00:59:49.164Z,3.54
2016-04-21T01:00:50.839Z,3.48
2016-04-21T01:01:49.123Z,3.43
2016-04-21T01:02:49.219Z,3.43
2016-04-21T01:03:49.097Z,3.45
2016-04-21T01:04:49.099Z,3.48
2016-04-21T01:05:49.131Z,3.42
2016-04-21T01:06:49.165Z,3.33
2016-04-21T01:07:49.212Z,3.36
2016-04-21T01:08:49.244Z,3.32
2016-04-21T01:09:49.267Z,3.39
2016-04-21T01:10:49.287Z,3.42
2016-04-21T01:11:49.290Z,3.36
2016-04-21T01:12:49.309Z,3.29
2016-04-21T01:13:49.297Z,3.29
2016-04-21T01:14:49.296Z,3.26
2016-04-21T01:15:49.305Z,3.23
2016-04-21T01:16:49.313Z,3.33
2016-04-21T01:17:51.228Z,3.21
2016-04-21T01:18:50.549Z,3.28
2016-04-21T01:19:49.291Z,3.28
2016-04-21T01:20:49.531Z,3.28
2016-04-21T01:21:49.285Z,3.24
2016-04-21T01:22:49.279Z,3.32
2016-04-21T01:23:49.267Z,3.26
2016-04-21T01:24:49.241Z,3.24
2016-04-21T01:25:49.245Z,3.17
2016-04-21T01:26:49.232Z,3.23
2016-04-21T01:27:50.174Z,3.18
2016-04-21T01:28:50.130Z,3.28
2016-04-21T01:29:49.352Z,3.23
2016-04-21T01:31:49.186Z,3.18
2016-04-21T01:32:49.189Z,3.26
2016-04-21T01:33:49.176Z,3.1
2016-04-21T01:34:49.164Z,3.13
2016-04-21T01:35:49.135Z,3.05
2016-04-21T01:36:49.138Z,3.1
2016-04-21T01:37:49.140Z,3.1
2016-04-21T01:38:49.129Z,3.14
2016-04-21T01:39:49.115Z,3.11
2016-04-21T01:40:49.134Z,3.13
2016-04-21T01:41:49.104Z,3.13
2016-04-21T01:42:49.092Z,3.13
2016-04-21T01:43:49.078Z,3.13
2016-04-21T01:44:49.081Z,3.08
2016-04-21T01:45:49.053Z,3.03
2016-04-21T01:46:49.072Z,3.06
2016-04-21T01:47:49.028Z,3.05
2016-04-21T01:48:49.014Z,3.1
2016-04-21T01:49:49.033Z,3.06
2016-04-21T01:50:49.003Z,3.03
2016-04-21T01:51:48.991Z,3.06
2016-04-21T01:52:48.994Z,2.95
2016-04-21T01:53:48.997Z,2.93
2016-04-21T01:54:49.000Z,3.02
2016-04-21T01:55:48.971Z,2.96
2016-04-21T01:56:48.974Z,2.99
2016-04-21T01:57:48.944Z,2.9
2016-04-21T01:58:48.947Z,2.93
2016-04-21T01:59:48.934Z,2.96
2016-04-21T02:00:48.921Z,2.93
2016-04-21T02:01:48.908Z,2.93
2016-04-21T02:02:48.911Z,2.87
2016-04-21T02:03:48.883Z,2.87
2016-04-21T02:04:48.885Z,2.87
2016-04-21T02:05:48.873Z,2.93
2016-04-21T02:06:48.875Z,2.9
2016-04-21T02:07:48.863Z,2.87
2016-04-21T02:08:48.834Z,2.95
2016-04-21T02:09:48.821Z,2.82
2016-04-21T02:10:48.823Z,2.84
2016-04-21T02:11:48.810Z,2.81
2016-04-21T02:12:48.812Z,2.84
2016-04-21T02:13:48.785Z,2.87
2016-04-21T02:14:48.788Z,2.82
2016-04-21T02:15:48.759Z,2.82
2016-04-21T02:16:48.777Z,2.82
2016-04-21T02:17:48.748Z,2.79
2016-04-21T02:18:48.750Z,2.84
2016-04-21T02:19:48.769Z,2.67
2016-04-21T02:20:48.742Z,2.66
2016-04-21T02:21:48.712Z,2.66
2016-04-21T02:22:48.714Z,2.77
2016-04-21T02:23:48.717Z,2.74
2016-04-21T02:24:48.706Z,2.75
2016-04-21T02:25:48.661Z,2.77
2016-04-21T02:26:48.664Z,2.75
2016-04-21T02:27:48.666Z,2.72
2016-04-21T02:28:48.653Z,2.72
2016-04-21T02:29:48.656Z,2.74
2016-04-21T02:30:48.627Z,2.71
2016-04-21T02:31:48.630Z,2.67
2016-04-21T02:32:48.616Z,2.72
2016-04-21T02:33:48.604Z,2.69
2016-04-21T02:34:48.591Z,2.71
2016-04-21T02:35:48.593Z,2.72
2016-04-21T02:36:48.832Z,2.67
2016-04-21T02:37:48.568Z,2.74
2016-04-21T02:38:48.555Z,2.71
2016-04-21T02:39:48.590Z,2.67
2016-04-21T02:40:48.545Z,2.67
2016-04-21T02:41:49.126Z,2.67
2016-04-21T02:42:48.503Z,2.54
2016-04-21T02:43:48.818Z,2.61
2016-04-21T02:44:48.509Z,2.6
2016-04-21T02:45:48.495Z,2.56
2016-04-21T02:47:02.655Z,2.56
2016-04-21T02:47:49.923Z,2.6
2016-04-21T02:48:48.848Z,2.54
2016-04-21T02:50:02.631Z,2.57
2016-04-21T02:50:48.447Z,2.57
2016-04-21T02:51:48.434Z,2.6
2016-04-21T02:52:48.436Z,2.57
2016-04-21T02:53:48.408Z,2.6
2016-04-21T02:54:48.395Z,2.53
2016-04-21T02:55:48.382Z,2.6
2016-04-21T02:56:48.385Z,2.54
2016-04-21T02:57:48.371Z,2.56
2016-04-21T02:58:48.375Z,2.56
2016-04-21T02:59:48.361Z,2.6
2016-04-21T03:00:48.349Z,2.59
2016-04-21T03:01:48.336Z,2.57
2016-04-21T03:02:48.322Z,2.6
2016-04-21T03:03:48.310Z,2.56
2016-04-21T03:04:48.313Z,2.6
2016-04-21T03:05:48.299Z,2.59
2016-04-21T03:06:48.287Z,2.52
2016-04-21T03:07:48.273Z,2.56
2016-04-21T03:09:48.264Z,2.57
2016-04-21T03:10:48.251Z,2.48
2016-04-21T03:11:49.316Z,2.49
2016-04-21T03:12:48.224Z,2.45
2016-04-21T03:13:48.056Z,2.38
2016-04-21T03:14:48.605Z,2.45
2016-04-21T03:15:48.201Z,2.41
2016-04-21T03:16:48.173Z,2.45
2016-04-21T03:17:48.956Z,2.38
2016-04-21T03:18:48.162Z,2.39
2016-04-21T03:19:48.931Z,2.36
2016-04-21T03:20:49.355Z,2.35
2016-04-21T03:21:48.753Z,2.39
2016-04-21T03:22:48.135Z,2.38
2016-04-21T03:23:48.482Z,2.36
2016-04-21T03:24:47.968Z,2.39
2016-04-21T03:25:48.096Z,2.35
2016-04-21T03:26:48.099Z,2.42
2016-04-21T03:27:48.070Z,2.35
2016-04-21T03:28:48.074Z,2.38
2016-04-21T03:29:48.045Z,2.43
2016-04-21T03:30:48.047Z,2.34
2016-04-21T03:31:48.034Z,2.3
2016-04-21T03:32:48.022Z,2.42
2016-04-21T03:33:48.009Z,2.31
2016-04-21T03:34:48.011Z,2.28
2016-04-21T03:35:47.983Z,2.35
2016-04-21T03:36:47.986Z,2.31
2016-04-21T03:37:47.989Z,2.38
2016-04-21T03:38:47.975Z,2.38
2016-04-21T03:39:47.978Z,2.38
2016-04-21T03:40:47.949Z,2.39
2016-04-21T03:41:47.936Z,2.3
2016-04-21T03:42:47.939Z,2.39
2016-04-21T03:43:47.911Z,2.35
2016-04-21T03:44:47.897Z,2.38
2016-04-21T03:45:47.900Z,2.39
2016-04-21T03:46:47.887Z,2.35
2016-04-21T03:47:47.875Z,2.31
2016-04-21T03:48:47.877Z,2.3
2016-04-21T03:49:47.864Z,2.2
2016-04-21T03:50:47.851Z,2.27
2016-04-21T03:51:47.838Z,2.25
2016-04-21T03:52:47.825Z,2.27
2016-04-21T03:53:47.813Z,2.3
2016-04-21T03:54:47.659Z,2.21
2016-04-21T03:55:49.802Z,2.25
2016-04-21T03:56:47.774Z,2.31
2016-04-21T03:57:47.964Z,2.3
2016-04-21T03:58:47.779Z,2.3
2016-04-21T03:59:48.594Z,2.27
2016-04-21T04:00:47.737Z,2.2
2016-04-21T04:01:47.928Z,2.3
2016-04-21T04:02:47.728Z,2.34
2016-04-21T04:03:47.745Z,2.39
2016-04-21T04:04:48.092Z,2.35
2016-04-21T04:05:47.704Z,2.31
2016-04-21T04:06:47.675Z,2.34
2016-04-21T04:07:47.881Z,2.39
2016-04-21T04:08:48.461Z,2.41
2016-04-21T04:09:48.262Z,2.46
2016-04-21T04:10:47.639Z,2.53
2016-04-21T04:11:47.642Z,2.57
2016-04-21T04:12:47.613Z,2.61
2016-04-21T04:13:47.616Z,2.57
2016-04-21T04:14:47.618Z,2.57
2016-04-21T04:15:47.605Z,2.59
2016-04-21T04:16:47.593Z,2.63
2016-04-21T04:17:47.580Z,2.66
2016-04-21T04:18:47.552Z,2.78
2016-04-21T04:19:47.554Z,2.84
2016-04-21T04:20:47.557Z,2.87
2016-04-21T04:21:47.529Z,3.06
2016-04-21T04:22:47.532Z,3.11
2016-04-21T04:23:47.518Z,3.23
2016-04-21T04:24:47.505Z,3.31
2016-04-21T04:25:47.507Z,3.51
2016-04-21T04:26:47.479Z,3.62
2016-04-21T04:27:48.045Z,3.8
2016-04-21T04:28:47.828Z,3.91
2016-04-21T04:29:47.457Z,4.12
2016-04-21T04:30:48.162Z,4.23
2016-04-21T04:31:47.790Z,4.58
2016-04-21T04:32:47.776Z,4.66
2016-04-21T04:33:47.436Z,4.88
2016-04-21T04:34:47.578Z,5.03
2016-04-21T04:35:47.410Z,5.21
2016-04-21T04:36:48.209Z,5.53
2016-04-21T04:37:47.790Z,5.67
2016-04-21T04:38:48.403Z,5.96
2016-04-21T04:39:48.264Z,6.08
2016-04-21T04:40:47.658Z,6.31
2016-04-21T04:41:47.347Z,6.56
2016-04-21T04:42:47.350Z,6.81
2016-04-21T04:43:47.338Z,7.05
2016-04-21T04:44:47.356Z,7.31
2016-04-21T04:45:47.343Z,7.57
2016-04-21T04:46:47.330Z,7.67
2016-04-21T04:47:47.316Z,7.82
2016-04-21T04:48:47.336Z,8.15
2016-04-21T04:49:47.322Z,8.36
2016-04-21T04:50:47.325Z,8.61
2016-04-21T04:51:47.296Z,8.8
2016-04-21T04:52:47.315Z,9.05
2016-04-21T04:53:47.318Z,9.33
2016-04-21T04:54:47.305Z,9.53
2016-04-21T04:55:47.277Z,9.81
2016-04-21T04:56:47.294Z,9.96
2016-04-21T04:57:47.266Z,10.27
2016-04-21T04:58:47.284Z,10.52
2016-04-21T04:59:47.256Z,10.74
2016-04-21T05:00:47.258Z,11.02
2016-04-21T05:01:47.277Z,11.21
2016-04-21T05:02:47.264Z,11.36
2016-04-21T05:03:47.267Z,11.55
2016-04-21T05:04:47.253Z,11.86
2016-04-21T05:05:47.256Z,12.02
2016-04-21T05:06:47.242Z,12.24
2016-04-21T05:07:47.261Z,12.49
2016-04-21T05:08:47.265Z,12.7
2016-04-21T05:09:47.251Z,12.85
2016-04-21T05:10:47.254Z,13.1
2016-04-21T05:11:47.272Z,13.32
2016-04-21T05:12:47.244Z,13.57
2016-04-21T05:13:47.261Z,13.82
2016-04-21T05:14:47.311Z,14.06
2016-04-21T05:15:47.986Z,14.32
2016-04-21T05:16:47.817Z,14.5
2016-04-21T05:17:47.257Z,14.6
2016-04-21T05:19:01.432Z,14.86
2016-04-21T05:19:47.856Z,14.98
2016-04-21T05:20:47.484Z,15.17
2016-04-21T05:21:47.252Z,15.41
2016-04-21T05:22:47.239Z,15.53
2016-04-21T05:23:49.429Z,15.76
2016-04-21T05:24:48.901Z,15.93
2016-04-21T05:25:47.357Z,16.07
2016-04-21T05:27:01.453Z,16.31
2016-04-21T05:27:48.049Z,16.52
2016-04-21T05:28:47.318Z,16.71
2016-04-21T05:29:47.274Z,16.89
2016-04-21T05:30:47.277Z,17.12
2016-04-21T05:31:47.279Z,17.22
2016-04-21T05:32:47.282Z,17.31
2016-04-21T05:33:47.149Z,17.54
2016-04-21T05:34:47.462Z,17.72
2016-04-21T05:35:47.139Z,17.82
2016-04-21T05:36:47.375Z,18
2016-04-21T05:37:47.243Z,18.17
2016-04-21T05:38:47.309Z,18.3
2016-04-21T05:39:47.296Z,18.37
2016-04-21T05:40:47.315Z,18.55
2016-04-21T05:41:47.317Z,18.76
2016-04-21T05:42:47.319Z,18.75
2016-04-21T05:43:47.307Z,18.78
2016-04-21T05:44:47.325Z,18.87
2016-04-21T05:45:48.186Z,18.92
2016-04-21T05:46:47.987Z,19.08
2016-04-21T05:47:47.458Z,19.32
2016-04-21T05:48:47.367Z,19.39
2016-04-21T05:49:47.354Z,19.58
2016-04-21T05:50:47.388Z,19.78
2016-04-21T05:51:47.391Z,19.86
2016-04-21T05:52:47.377Z,19.88
2016-04-21T05:53:47.506Z,20.05
2016-04-21T05:54:47.399Z,20.06
2016-04-21T05:55:47.401Z,20.28
2016-04-21T05:56:48.405Z,20.35
2016-04-21T05:57:48.610Z,20.52
2016-04-21T05:58:48.206Z,20.52
2016-04-21T05:59:47.444Z,20.7
2016-04-21T06:00:47.993Z,20.77
2016-04-21T06:01:47.980Z,20.97
2016-04-21T06:02:47.468Z,20.94
2016-04-21T06:03:47.485Z,20.92
2016-04-21T06:04:47.473Z,21.01
2016-04-21T06:05:47.476Z,21.01
2016-04-21T06:06:47.509Z,21.09
2016-04-21T06:07:47.496Z,21.17
2016-04-21T06:08:47.529Z,21.21
2016-04-21T06:09:47.517Z,21.24
2016-04-21T06:10:47.551Z,21.19
2016-04-21T06:11:47.538Z,21.29
2016-04-21T06:12:47.572Z,21.32
2016-04-21T06:13:47.559Z,21.38
2016-04-21T06:14:47.578Z,21.5
2016-04-21T06:15:47.596Z,21.56
2016-04-21T06:16:47.598Z,21.62
2016-04-21T06:17:47.586Z,21.62
2016-04-21T06:18:47.604Z,21.69
2016-04-21T06:19:47.638Z,21.75
2016-04-21T06:20:47.641Z,21.91
2016-04-21T06:21:47.658Z,21.92
2016-04-21T06:22:47.661Z,21.99
2016-04-21T06:23:47.680Z,21.88
2016-04-21T06:24:47.697Z,21.9
2016-04-21T06:25:47.700Z,22
2016-04-21T06:26:47.703Z,22.1
2016-04-21T06:27:47.706Z,22.31
2016-04-21T06:28:47.708Z,22.43
2016-04-21T06:29:47.743Z,22.64
2016-04-21T06:30:47.746Z,22.86
2016-04-21T06:31:47.764Z,22.9
2016-04-21T06:32:47.767Z,23.04
2016-04-21T06:33:48.691Z,23.09
2016-04-21T06:34:48.991Z,23.05
2016-04-21T06:35:48.618Z,22.94
2016-04-21T06:36:47.824Z,22.92
2016-04-21T06:37:48.343Z,23.01
2016-04-21T06:38:47.940Z,22.98
2016-04-21T06:39:47.863Z,23.17
2016-04-21T06:40:47.866Z,23.27
2016-04-21T06:41:47.885Z,23.4
2016-04-21T06:42:48.700Z,23.54
2016-04-21T06:43:47.905Z,23.66
2016-04-21T06:44:48.706Z,23.83
2016-04-21T06:45:48.973Z,23.98
2016-04-21T06:46:48.898Z,24.12
2016-04-21T06:47:47.964Z,24.09
2016-04-21T06:48:47.998Z,24.21
2016-04-21T06:49:48.187Z,24.27
2016-04-21T06:50:47.987Z,24.24
2016-04-21T06:51:48.021Z,24.3
2016-04-21T06:52:48.039Z,24.4
2016-04-21T06:53:48.042Z,24.37
2016-04-21T06:54:48.045Z,24.42
2016-04-21T06:55:48.094Z,24.62
2016-04-21T06:56:48.081Z,24.68
2016-04-21T06:57:48.084Z,24.8
2016-04-21T06:58:48.118Z,24.78
2016-04-21T06:59:48.121Z,24.91
2016-04-21T07:00:48.139Z,24.99
2016-04-21T07:01:48.141Z,25.06
2016-04-21T07:02:48.175Z,25.1
2016-04-21T07:03:48.178Z,25.05
2016-04-21T07:04:49.821Z,25.06
2016-04-21T07:05:49.683Z,25.15
2016-04-21T07:06:48.561Z,25.32
2016-04-21T07:07:49.392Z,25.33
2016-04-21T07:08:48.270Z,25.3
2016-04-21T07:09:49.132Z,25.33
2016-04-21T07:10:48.540Z,25.47
2016-04-21T07:11:48.543Z,25.51
2016-04-21T07:12:48.484Z,25.62
2016-04-21T07:13:48.362Z,25.7
2016-04-21T07:14:49.989Z,25.65
2016-04-21T07:15:50.304Z,25.6
2016-04-21T07:16:49.931Z,25.69
2016-04-21T07:17:49.044Z,25.72
2016-04-21T07:18:52.000Z,25.65
2016-04-21T07:19:48.424Z,25.61
2016-04-21T07:20:48.896Z,25.61
2016-04-21T07:21:48.523Z,25.69
2016-04-21T07:22:48.463Z,25.62
2016-04-21T07:23:48.498Z,25.77
2016-04-21T07:24:48.501Z,25.83
2016-04-21T07:25:48.534Z,25.95
2016-04-21T07:26:48.537Z,25.99
2016-04-21T07:27:48.572Z,26.06
2016-04-21T07:28:48.574Z,26.21
2016-04-21T07:29:48.623Z,26.26
2016-04-21T07:30:48.641Z,26.25
2016-04-21T07:31:48.644Z,26.29
2016-04-21T07:32:48.710Z,26.15
2016-04-21T07:33:48.665Z,26.12
2016-04-21T07:34:48.668Z,26.02
2016-04-21T07:35:48.685Z,25.98
2016-04-21T07:36:48.720Z,25.99
2016-04-21T07:37:48.739Z,25.95
2016-04-21T07:38:48.741Z,25.87
2016-04-21T07:39:48.743Z,25.72
2016-04-21T07:40:48.794Z,25.65
2016-04-21T07:41:48.780Z,25.69
2016-04-21T07:42:48.830Z,25.73
2016-04-21T07:43:48.818Z,25.62
2016-04-21T07:44:48.851Z,25.64
2016-04-21T07:45:48.854Z,25.54
2016-04-21T07:46:48.887Z,25.42
2016-04-21T07:47:48.875Z,25.47
2016-04-21T07:48:48.909Z,25.54
2016-04-21T07:49:48.942Z,25.27
2016-04-21T07:50:48.945Z,25.14
2016-04-21T07:51:48.979Z,25.1
2016-04-21T07:53:03.435Z,25.14
2016-04-21T07:54:03.203Z,25.1
2016-04-21T07:54:49.847Z,25.1
2016-04-21T07:55:48.881Z,25.23
2016-04-21T07:56:49.055Z,25.25
2016-04-21T07:57:49.058Z,25.35
2016-04-21T07:58:49.076Z,25.58
2016-04-21T07:59:49.110Z,25.62
2016-04-21T08:00:49.144Z,25.64
2016-04-21T08:01:49.162Z,25.46
2016-04-21T08:03:03.197Z,25.43
2016-04-21T08:03:49.199Z,25.51
2016-04-21T08:04:49.201Z,25.46
2016-04-21T08:05:50.127Z,25.33
2016-04-21T08:06:49.238Z,25.06
2016-04-21T08:07:49.272Z,24.83
2016-04-21T08:08:49.135Z,24.61
2016-04-21T08:09:49.324Z,24.35
2016-04-21T08:10:49.296Z,24.1
2016-04-21T08:11:49.345Z,23.94
2016-04-21T08:12:49.363Z,23.43
2016-04-21T08:13:49.210Z,23.27
2016-04-21T08:14:49.385Z,23.1
2016-04-21T08:15:49.419Z,23.09
2016-04-21T08:16:49.406Z,23.04
2016-04-21T08:17:49.440Z,23.01
2016-04-21T08:18:49.442Z,22.91
2016-04-21T08:19:49.477Z,22.86
2016-04-21T08:20:49.479Z,22.85
2016-04-21T08:21:49.498Z,22.98
2016-04-21T08:22:49.500Z,22.88
2016-04-21T08:23:49.564Z,22.76
2016-04-21T08:24:49.553Z,22.51
2016-04-21T08:25:50.508Z,22.37
2016-04-21T08:26:49.558Z,22.07
2016-04-21T08:27:50.544Z,21.75
2016-04-21T08:28:50.407Z,21.5
2016-04-21T08:29:49.597Z,21.25
2016-04-21T08:30:49.615Z,21.14
2016-04-21T08:31:49.650Z,20.91
2016-04-21T08:32:49.636Z,20.67
2016-04-21T08:33:50.358Z,20.32
2016-04-21T08:34:50.392Z,20.17
2016-04-21T08:35:49.691Z,19.83
2016-04-21T08:36:50.710Z,19.58
2016-04-21T08:37:49.727Z,19.25
2016-04-21T08:38:49.730Z,18.94
2016-04-21T08:39:49.765Z,18.48
2016-04-21T08:40:49.782Z,18.05
2016-04-21T08:41:49.755Z,17.97
2016-04-21T08:42:49.788Z,17.79
2016-04-21T08:43:49.776Z,17.56
2016-04-21T08:44:49.763Z,17.31
2016-04-21T08:45:49.812Z,17.15
2016-04-21T08:46:49.783Z,16.81
2016-04-21T08:47:49.818Z,16.49
2016-04-21T08:48:49.790Z,16.33
2016-04-21T08:49:49.823Z,16.2
2016-04-21T08:50:49.825Z,16.15
2016-04-21T08:51:49.828Z,15.97
2016-04-21T08:52:49.836Z,16.04
2016-04-21T08:53:49.823Z,15.92
2016-04-21T08:54:49.825Z,15.83
2016-04-21T08:55:49.844Z,15.72
2016-04-21T08:56:49.846Z,15.67
2016-04-21T08:57:49.849Z,15.57
2016-04-21T08:58:49.852Z,15.41
2016-04-21T08:59:49.838Z,15.25
2016-04-21T09:00:49.872Z,15.35
2016-04-21T09:01:49.876Z,15.32
2016-04-21T09:02:49.878Z,15.29
2016-04-21T09:03:49.849Z,15.21
2016-04-21T09:04:49.883Z,15.23
2016-04-21T09:05:49.871Z,15.2
2016-04-21T09:06:49.874Z,15.09
2016-04-21T09:07:49.876Z,15.03
2016-04-21T09:08:49.863Z,14.99
2016-04-21T09:09:49.866Z,14.89
2016-04-21T09:10:50.977Z,14.88
2016-04-21T09:11:51.480Z,14.83
2016-04-21T09:12:50.686Z,14.77
2016-04-21T09:13:49.877Z,14.77
2016-04-21T09:14:50.286Z,14.78
2016-04-21T09:15:50.429Z,14.73
2016-04-21T09:16:49.884Z,14.73
2016-04-21T09:17:49.887Z,14.68
2016-04-21T09:18:49.889Z,14.65
2016-04-21T09:19:49.893Z,14.6
2016-04-21T09:21:05.083Z,14.58
2016-04-21T09:21:50.289Z,14.51
2016-04-21T09:22:50.650Z,14.62
2016-04-21T09:23:50.278Z,14.6
2016-04-21T09:24:49.906Z,14.54
2016-04-21T09:25:50.159Z,14.57
2016-04-21T09:26:50.240Z,14.61
2016-04-21T09:27:49.884Z,14.77
2016-04-21T09:28:49.886Z,14.64
2016-04-21T09:29:49.904Z,14.77
2016-04-21T09:30:49.906Z,14.68
2016-04-21T09:31:49.894Z,14.7
2016-04-21T09:32:49.896Z,14.58
2016-04-21T09:33:49.883Z,14.47
2016-04-21T09:34:49.902Z,14.46
2016-04-21T09:35:49.889Z,14.39
2016-04-21T09:36:49.907Z,14.36
2016-04-21T09:37:49.879Z,14.37
2016-04-21T09:38:49.912Z,14.25
2016-04-21T09:39:49.900Z,14.32
2016-04-21T09:40:49.918Z,14.35
2016-04-21T09:41:49.905Z,14.28
2016-04-21T09:42:49.751Z,14.37
2016-04-21T09:43:51.738Z,14.35
2016-04-21T09:44:49.960Z,14.37
2016-04-21T09:45:50.196Z,14.47
2016-04-21T09:46:50.059Z,14.52
2016-04-21T09:47:49.906Z,14.58
2016-04-21T09:48:49.892Z,14.65
2016-04-21T09:49:49.927Z,14.64
2016-04-21T09:50:49.882Z,14.6
2016-04-21T09:51:49.900Z,14.57
2016-04-21T09:52:50.341Z,14.7
2016-04-21T09:53:49.953Z,14.77
2016-04-21T09:54:49.893Z,14.78
2016-04-21T09:55:50.318Z,14.75
2016-04-21T09:56:50.633Z,14.68
2016-04-21T09:57:49.901Z,14.64
2016-04-21T09:58:50.278Z,14.68
2016-04-21T09:59:49.907Z,14.64
2016-04-21T10:00:49.894Z,14.58
2016-04-21T10:01:49.897Z,14.6
2016-04-21T10:02:49.900Z,14.5
2016-04-21T10:03:49.917Z,14.58
2016-04-21T10:04:49.888Z,14.58
2016-04-21T10:05:49.907Z,14.51
2016-04-21T10:06:49.878Z,14.51
2016-04-21T10:07:49.897Z,14.54
2016-04-21T10:08:49.883Z,14.55
2016-04-21T10:09:49.902Z,14.54
2016-04-21T10:10:49.921Z,14.4
2016-04-21T10:11:49.968Z,14.51
2016-04-21T10:12:49.889Z,14.42
2016-04-21T10:13:50.061Z,14.45
2016-04-21T10:14:50.093Z,14.33
2016-04-21T10:15:50.134Z,14.37
2016-04-21T10:16:50.122Z,14.36
2016-04-21T10:17:50.187Z,14.39
2016-04-21T10:18:50.175Z,14.47
2016-04-21T10:19:50.194Z,14.54
2016-04-21T10:20:50.188Z,14.46
2016-04-21T10:21:50.212Z,14.47
2016-04-21T10:22:50.206Z,14.42
2016-04-21T10:23:50.199Z,14.4
2016-04-21T10:24:50.222Z,14.36
2016-04-21T10:25:50.197Z,14.45
2016-04-21T10:26:50.217Z,14.55
2016-04-21T10:27:50.222Z,14.5
2016-04-21T10:28:50.227Z,14.45
2016-04-21T10:29:51.528Z,14.52
2016-04-21T10:30:51.517Z,14.37
2016-04-21T10:31:50.332Z,14.37
2016-04-21T10:32:51.570Z,14.39
2016-04-21T10:33:50.229Z,14.46
2016-04-21T10:34:50.233Z,14.55
2016-04-21T10:35:50.783Z,14.61
2016-04-21T10:36:50.223Z,14.58
2016-04-21T10:37:50.227Z,14.54
2016-04-21T10:38:50.229Z,14.58
2016-04-21T10:40:05.217Z,14.47
2016-04-21T10:40:50.220Z,14.5
2016-04-21T10:41:50.223Z,14.37
2016-04-21T10:42:50.226Z,14.46
2016-04-21T10:43:50.821Z,14.45
2016-04-21T10:45:04.418Z,14.45
2016-04-21T10:45:50.359Z,14.47
2016-04-21T10:46:50.236Z,14.47
2016-04-21T10:47:50.208Z,14.43
2016-04-21T10:48:50.226Z,14.46
2016-04-21T10:49:50.229Z,14.51
2016-04-21T10:50:50.216Z,14.51
2016-04-21T10:51:50.218Z,14.5
2016-04-21T10:52:50.237Z,14.5
2016-04-21T10:53:50.224Z,14.45
2016-04-21T10:54:50.273Z,14.45
2016-04-21T10:55:50.229Z,14.47
2016-04-21T10:56:50.231Z,14.6
2016-04-21T10:57:50.203Z,14.6
2016-04-21T10:58:50.222Z,14.5
2016-04-21T10:59:50.208Z,14.45
2016-04-21T11:00:50.211Z,14.35
2016-04-21T11:01:50.495Z,14.42
2016-04-21T11:02:51.014Z,14.4
2016-04-21T11:03:50.204Z,14.47
2016-04-21T11:04:50.316Z,14.36
2016-04-21T11:05:50.210Z,14.54
2016-04-21T11:06:50.213Z,14.52
2016-04-21T11:07:50.261Z,14.52
2016-04-21T11:08:50.514Z,14.51
2016-04-21T11:09:50.235Z,14.58
2016-04-21T11:10:50.207Z,14.54
2016-04-21T11:11:50.741Z,14.58
2016-04-21T11:12:50.213Z,14.51
2016-04-21T11:13:51.481Z,14.58
2016-04-21T11:14:50.202Z,14.68
2016-04-21T11:15:50.549Z,14.61
2016-04-21T11:16:50.365Z,14.62
2016-04-21T11:17:50.194Z,14.5
2016-04-21T11:18:50.197Z,14.39
2016-04-21T11:19:50.200Z,14.4
2016-04-21T11:20:50.203Z,14.4
2016-04-21T11:21:50.205Z,14.42
2016-04-21T11:22:50.193Z,14.36
2016-04-21T11:23:50.195Z,14.4
2016-04-21T11:24:50.104Z,14.28
2016-04-21T11:25:50.216Z,14.25
2016-04-21T11:26:50.203Z,14.32
2016-04-21T11:27:50.206Z,14.27
2016-04-21T11:28:50.193Z,14.27
2016-04-21T11:29:50.195Z,14.22
2016-04-21T11:30:50.183Z,14.18
2016-04-21T11:31:50.200Z,14.18
2016-04-21T11:32:50.188Z,14.25
2016-04-21T11:33:50.206Z,14.12
2016-04-21T11:34:50.194Z,14.24
2016-04-21T11:35:50.211Z,14.17
2016-04-21T11:36:50.199Z,14.21
2016-04-21T11:37:50.185Z,14.18
2016-04-21T11:38:50.219Z,14.18
2016-04-21T11:39:50.238Z,14.15
2016-04-21T11:40:50.194Z,14.24
2016-04-21T11:41:50.197Z,14.25
2016-04-21T11:42:50.184Z,14.27
2016-04-21T11:43:50.187Z,14.27
2016-04-21T11:44:50.190Z,14.25
2016-04-21T11:45:50.177Z,14.36
2016-04-21T11:46:50.179Z,14.36
2016-04-21T11:47:50.197Z,14.21
2016-04-21T11:48:51.731Z,14.29
2016-04-21T11:49:51.249Z,14.35
2016-04-21T11:50:50.299Z,14.27
2016-04-21T11:51:50.505Z,14.18
2016-04-21T11:52:50.398Z,14.06
2016-04-21T11:53:50.588Z,14.09
2016-04-21T11:54:50.684Z,14.2
2016-04-21T11:55:50.281Z,14.14
2016-04-21T11:56:50.175Z,14.17
2016-04-21T11:57:50.178Z,14.24
2016-04-21T11:59:04.867Z,14.21
2016-04-21T11:59:50.167Z,14.21
2016-04-21T12:00:50.200Z,14.22
2016-04-21T12:01:50.719Z,14.35
2016-04-21T12:02:50.191Z,14.27
2016-04-21T12:03:50.819Z,14.22
2016-04-21T12:04:50.181Z,14.24
2016-04-21T12:05:50.167Z,14.28
2016-04-21T12:06:50.170Z,14.35
2016-04-21T12:07:50.172Z,14.36
2016-04-21T12:08:50.175Z,14.37
2016-04-21T12:09:50.163Z,14.4
2016-04-21T12:10:50.180Z,14.43
2016-04-21T12:11:50.183Z,14.37
2016-04-21T12:12:50.202Z,14.45
2016-04-21T12:13:50.157Z,14.46
2016-04-21T12:14:50.176Z,14.51
2016-04-21T12:15:50.163Z,14.46
2016-04-21T12:16:50.166Z,14.57
2016-04-21T12:17:50.168Z,14.54
2016-04-21T12:18:50.156Z,14.57
2016-04-21T12:19:50.189Z,14.58
2016-04-21T12:20:50.536Z,14.57
2016-04-21T12:21:51.695Z,14.61
2016-04-21T12:22:50.166Z,14.62
2016-04-21T12:23:51.123Z,14.58
2016-04-21T12:24:50.172Z,14.69
2016-04-21T12:25:50.237Z,14.73
2016-04-21T12:26:50.145Z,14.62
2016-04-21T12:27:50.149Z,14.8
2016-04-21T12:28:50.151Z,14.73
2016-04-21T12:29:50.200Z,14.73
2016-04-21T12:30:50.156Z,14.75
2016-04-21T12:31:51.831Z,14.8
2016-04-21T12:32:50.537Z,14.75
2016-04-21T12:33:50.399Z,14.72
2016-04-21T12:34:50.167Z,14.75
2016-04-21T12:35:50.154Z,14.73
2016-04-21T12:36:50.188Z,14.77
2016-04-21T12:37:50.160Z,14.72
2016-04-21T12:38:50.147Z,14.8
2016-04-21T12:39:50.165Z,14.7
2016-04-21T12:40:50.152Z,14.8
2016-04-21T12:41:50.155Z,14.81
2016-04-21T12:42:50.142Z,14.83
2016-04-21T12:43:50.144Z,14.8
2016-04-21T12:44:50.147Z,14.77
2016-04-21T12:45:50.149Z,14.81
2016-04-21T12:46:50.168Z,14.72
2016-04-21T12:47:50.155Z,14.62
2016-04-21T12:48:50.126Z,14.65
2016-04-21T12:49:50.161Z,14.62
2016-04-21T12:50:50.132Z,14.7
2016-04-21T12:51:50.151Z,14.7
2016-04-21T12:52:50.138Z,14.69
2016-04-21T12:53:50.140Z,14.78
2016-04-21T12:54:50.143Z,14.7
2016-04-21T12:55:50.145Z,14.7
2016-04-21T12:56:50.148Z,14.75
2016-04-21T12:57:50.151Z,14.7
2016-04-21T12:58:50.139Z,14.68
2016-04-21T12:59:50.157Z,14.62
2016-04-21T13:00:50.144Z,14.62
2016-04-21T13:01:50.147Z,14.69
2016-04-21T13:02:50.150Z,14.7
2016-04-21T13:03:50.167Z,14.65
2016-04-21T13:04:50.138Z,14.65
2016-04-21T13:05:50.141Z,14.64
2016-04-21T13:06:50.113Z,14.78
2016-04-21T13:07:51.788Z,14.77